createdAt,value
2019-05-03T11:33:15.759Z,14.14
2019-05-03T11:38:19.012Z,13.59
2019-05-03T11:43:22.071Z,13.39
2019-05-03T11:48:25.274Z,13.19
2019-05-03T11:53:26.363Z,13.16
2019-05-03T11:58:27.450Z,12.95
2019-05-03T12:03:39.460Z,12.51
2019-05-03T12:08:40.618Z,12.31
2019-05-03T12:13:45.456Z,11.98
2019-05-03T12:18:53.366Z,12.09
2019-05-03T12:23:50.092Z,11.59
2019-05-03T12:28:51.530Z,11.67
2019-05-03T12:33:54.900Z,12.01
2019-05-03T12:38:55.410Z,12.27
2019-05-03T12:43:56.357Z,12.42
2019-05-03T12:48:57.344Z,12.75
2019-05-03T12:53:58.328Z,13.42
2019-05-03T12:59:10.125Z,13.94
2019-05-03T13:04:15.165Z,13.35
2019-05-03T13:09:16.083Z,13.95
2019-05-03T13:14:17.096Z,13.65
2019-05-03T13:19:17.952Z,13.34
2019-05-03T13:24:23.101Z,13.59
2019-05-03T13:29:21.732Z,14.04
2019-05-03T13:34:24.712Z,14.08
2019-05-03T13:39:26.506Z,14.06
2019-05-03T13:44:27.661Z,13.63
2019-05-03T13:49:28.552Z,13.88
2019-05-03T13:54:29.433Z,13.95
2019-05-03T13:59:30.288Z,14.37
2019-05-03T14:04:31.164Z,14.94
2019-05-03T14:09:34.587Z,15.21
2019-05-03T14:14:55.970Z,15.16
2019-05-03T14:20:09.897Z,15.92
2019-05-03T14:25:10.972Z,16.05
2019-05-03T14:30:14.526Z,15.44
2019-05-03T14:35:16.308Z,15.06
2019-05-03T14:40:17.603Z,14.71
2019-05-03T14:45:19.020Z,15.00
2019-05-03T14:50:21.252Z,14.63
2019-05-03T14:55:25.204Z,14.40
2019-05-03T15:00:38.177Z,14.31
2019-05-03T15:05:39.276Z,13.95
2019-05-03T15:10:40.161Z,13.94
2019-05-03T15:15:41.141Z,14.23
2019-05-03T15:20:42.839Z,13.86
2019-05-03T15:25:45.211Z,13.64
2019-05-03T15:30:46.351Z,12.96
2019-05-03T15:35:47.251Z,12.97
2019-05-03T15:40:48.210Z,12.62
2019-05-03T15:45:51.014Z,12.34
2019-05-03T15:50:51.873Z,12.37
2019-05-03T15:55:54.528Z,12.34
2019-05-03T16:00:56.128Z,12.25
2019-05-03T16:05:57.066Z,12.38
2019-05-03T16:10:57.959Z,12.17
2019-05-03T16:15:58.830Z,12.25
2019-05-03T16:20:59.721Z,12.21
2019-05-03T16:26:00.707Z,12.24
2019-05-03T16:31:09.432Z,12.04
2019-05-03T16:36:10.320Z,12.30
2019-05-03T16:41:11.184Z,12.27
2019-05-03T16:46:14.408Z,12.16
2019-05-03T16:51:17.304Z,11.95
2019-05-03T16:56:17.974Z,12.20
2019-05-03T17:01:18.950Z,12.02
2019-05-03T17:06:26.394Z,11.95
2019-05-03T17:11:27.619Z,11.93
2019-05-03T17:16:28.496Z,11.96
2019-05-03T17:21:29.380Z,11.97
2019-05-03T17:26:30.276Z,11.97
2019-05-03T17:31:31.156Z,11.99
2019-05-03T17:36:32.051Z,11.92
2019-05-03T17:41:47.118Z,11.85
2019-05-03T17:46:50.680Z,11.79
2019-05-03T17:51:57.681Z,11.83
2019-05-03T17:57:17.718Z,11.75
2019-05-03T18:02:27.372Z,11.67
2019-05-03T18:07:34.915Z,11.61
2019-05-03T18:12:36.567Z,11.59
2019-05-03T18:17:38.952Z,11.49
2019-05-03T18:22:40.386Z,11.34
2019-05-03T18:27:42.321Z,11.25
2019-05-03T18:32:45.166Z,11.37
2019-05-03T18:37:48.064Z,11.29
2019-05-03T18:43:05.255Z,11.33
2019-05-03T18:48:06.143Z,11.35
2019-05-03T18:53:07.472Z,11.36
2019-05-03T18:58:08.357Z,11.31
2019-05-03T19:03:11.003Z,11.34
2019-05-03T19:08:30.440Z,11.37
2019-05-03T19:13:33.340Z,11.33
2019-05-03T19:18:36.220Z,11.41
2019-05-03T19:23:37.208Z,11.34
2019-05-03T19:28:38.093Z,11.27
2019-05-03T19:33:38.959Z,11.28
2019-05-03T19:38:39.840Z,11.15
2019-05-03T19:43:40.712Z,11.17
2019-05-03T19:48:41.619Z,11.10
2019-05-03T19:53:47.427Z,11.17
2019-05-03T19:58:48.832Z,11.07
2019-05-03T20:03:54.607Z,10.97
2019-05-03T20:09:03.163Z,10.98
2019-05-03T20:14:04.749Z,11.03
2019-05-03T20:19:17.850Z,11.02
2019-05-03T20:24:08.672Z,10.95
2019-05-03T20:29:09.567Z,11.02
2019-05-03T20:34:10.443Z,11.02
2019-05-03T20:39:11.319Z,10.97
2019-05-03T20:44:24.734Z,10.98
2019-05-03T20:49:25.576Z,10.95
2019-05-03T20:54:26.448Z,11.08
2019-05-03T20:59:27.428Z,11.03
2019-05-03T21:04:28.324Z,10.89
2019-05-03T21:09:29.184Z,10.92
2019-05-03T21:14:30.060Z,11.07
2019-05-03T21:19:36.317Z,10.99
2019-05-03T21:24:47.884Z,10.68
2019-05-03T21:29:50.675Z,10.61
2019-05-03T21:34:51.564Z,10.61
2019-05-03T21:39:52.435Z,10.75
2019-05-03T21:44:55.359Z,10.69
2019-05-03T21:49:58.018Z,10.70
2019-05-03T21:54:59.332Z,10.69
2019-05-03T22:00:00.913Z,10.69
2019-05-03T22:05:03.104Z,10.56
2019-05-03T22:10:05.521Z,10.59
2019-05-03T22:15:20.761Z,10.66
2019-05-03T22:20:41.849Z,10.43
2019-05-03T22:25:43.831Z,10.43
2019-05-03T22:30:45.334Z,10.57
2019-05-03T22:35:46.436Z,10.55
2019-05-03T22:40:47.313Z,10.58
2019-05-03T22:45:48.283Z,10.47
2019-05-03T22:50:49.179Z,10.38
2019-05-03T22:55:50.276Z,10.43
2019-05-03T23:00:51.168Z,10.43
2019-05-03T23:05:52.421Z,10.43
2019-05-03T23:10:54.734Z,10.41
2019-05-03T23:15:55.816Z,10.41
2019-05-03T23:20:58.611Z,10.22
2019-05-03T23:25:59.487Z,10.23
